sensor_id;sensor_type;location;lat;lon;timestamp;pressure;altitude;pressure_sealevel;temperature;humidity
45323;BME280;31382;50.200;8.674;2023-03-20T00:02:07;100502.47;;;12.87;66.21
45323;BME280;31382;50.200;8.674;2023-03-20T00:07:11;100495.09;;;12.96;66.16
45323;BME280;31382;50.200;8.674;2023-03-20T00:12:14;100499.19;;;12.92;65.86
45323;BME280;31382;50.200;8.674;2023-03-20T00:17:19;100496.84;;;12.89;66.26
45323;BME280;31382;50.200;8.674;2023-03-20T00:22:21;100502.06;;;12.90;66.20
45323;BME280;31382;50.200;8.674;2023-03-20T00:27:22;100508.88;;;12.86;66.74
45323;BME280;31382;50.200;8.674;2023-03-20T00:32:24;100516.97;;;12.86;66.17
45323;BME280;31382;50.200;8.674;2023-03-20T00:37:25;100519.38;;;12.96;66.05
45323;BME280;31382;50.200;8.674;2023-03-20T00:42:28;100521.41;;;13.09;65.47
45323;BME280;31382;50.200;8.674;2023-03-20T00:47:31;100530.34;;;13.09;65.90
45323;BME280;31382;50.200;8.674;2023-03-20T00:52:36;100521.41;;;13.09;65.66
45323;BME280;31382;50.200;8.674;2023-03-20T00:57:42;100527.19;;;13.06;66.10
45323;BME280;31382;50.200;8.674;2023-03-20T01:02:44;100534.75;;;12.96;66.12
45323;BME280;31382;50.200;8.674;2023-03-20T01:07:46;100526.19;;;12.92;66.20
45323;BME280;31382;50.200;8.674;2023-03-20T01:12:48;100528.41;;;12.88;66.42
45323;BME280;31382;50.200;8.674;2023-03-20T01:17:50;100534.84;;;12.87;66.08
45323;BME280;31382;50.200;8.674;2023-03-20T01:22:53;100531.84;;;12.67;66.63
45323;BME280;31382;50.200;8.674;2023-03-20T01:27:54;100528.31;;;12.67;66.32
45323;BME280;31382;50.200;8.674;2023-03-20T01:32:59;100530.53;;;12.63;66.70
45323;BME280;31382;50.200;8.674;2023-03-20T01:38:01;100527.09;;;12.55;67.04
45323;BME280;31382;50.200;8.674;2023-03-20T01:43:02;100529.78;;;12.55;66.79
45323;BME280;31382;50.200;8.674;2023-03-20T01:48:17;100527.94;;;12.55;66.94
45323;BME280;31382;50.200;8.674;2023-03-20T01:53:22;100532.59;;;12.46;67.19
45323;BME280;31382;50.200;8.674;2023-03-20T01:58:30;100531.19;;;12.50;66.92
45323;BME280;31382;50.200;8.674;2023-03-20T02:03:33;100541.16;;;12.50;67.15
45323;BME280;31382;50.200;8.674;2023-03-20T02:08:46;100531.66;;;12.54;67.00
45323;BME280;31382;50.200;8.674;2023-03-20T02:13:51;100537.59;;;12.49;66.93
45323;BME280;31382;50.200;8.674;2023-03-20T02:18:54;100536.28;;;12.45;66.95
45323;BME280;31382;50.200;8.674;2023-03-20T02:50:26;100564.66;;;12.18;67.85
45323;BME280;31382;50.200;8.674;2023-03-20T02:55:39;100551.97;;;12.27;67.67
45323;BME280;31382;50.200;8.674;2023-03-20T03:05:58;100571.09;;;12.32;67.52
45323;BME280;31382;50.200;8.674;2023-03-20T03:11:07;100573.09;;;12.38;67.60
45323;BME280;31382;50.200;8.674;2023-03-20T03:16:13;100568.13;;;12.27;67.44
45323;BME280;31382;50.200;8.674;2023-03-20T03:21:17;100572.81;;;12.33;67.11
45323;BME280;31382;50.200;8.674;2023-03-20T03:26:25;100564.06;;;12.31;67.42
45323;BME280;31382;50.200;8.674;2023-03-20T03:31:28;100565.06;;;12.30;67.68
45323;BME280;31382;50.200;8.674;2023-03-20T03:37:01;100556.97;;;12.30;67.86
45323;BME280;31382;50.200;8.674;2023-03-20T03:42:13;100556.16;;;12.29;67.40
45323;BME280;31382;50.200;8.674;2023-03-20T03:47:27;100566.66;;;12.24;67.75
45323;BME280;31382;50.200;8.674;2023-03-20T03:52:32;100576.28;;;12.19;67.60
45323;BME280;31382;50.200;8.674;2023-03-20T03:58:07;100582.94;;;12.08;67.98
45323;BME280;31382;50.200;8.674;2023-03-20T04:03:11;100592.72;;;12.09;67.75
45323;BME280;31382;50.200;8.674;2023-03-20T04:08:13;100592.22;;;12.05;67.80
45323;BME280;31382;50.200;8.674;2023-03-20T04:13:16;100588.63;;;12.13;67.78
45323;BME280;31382;50.200;8.674;2023-03-20T04:18:18;100580.97;;;12.25;67.56
45323;BME280;31382;50.200;8.674;2023-03-20T04:23:19;100580.06;;;12.33;67.73
45323;BME280;31382;50.200;8.674;2023-03-20T04:28:21;100602.28;;;12.35;67.64
45323;BME280;31382;50.200;8.674;2023-03-20T04:33:23;100594.84;;;12.37;66.99
45323;BME280;31382;50.200;8.674;2023-03-20T04:38:24;100603.88;;;12.44;67.12
45323;BME280;31382;50.200;8.674;2023-03-20T04:43:26;100616.34;;;12.45;66.97
45323;BME280;31382;50.200;8.674;2023-03-20T04:48:27;100618.56;;;12.41;67.46
45323;BME280;31382;50.200;8.674;2023-03-20T04:53:29;100626.53;;;12.35;67.44
45323;BME280;31382;50.200;8.674;2023-03-20T04:58:30;100626.38;;;12.36;67.19
45323;BME280;31382;50.200;8.674;2023-03-20T05:03:32;100622.28;;;12.40;67.26
45323;BME280;31382;50.200;8.674;2023-03-20T05:08:33;100637.25;;;12.43;67.79
45323;BME280;31382;50.200;8.674;2023-03-20T05:13:34;100626.28;;;12.44;67.36
45323;BME280;31382;50.200;8.674;2023-03-20T05:18:36;100617.56;;;12.42;67.55
45323;BME280;31382;50.200;8.674;2023-03-20T05:23:37;100603.25;;;12.57;67.09
45323;BME280;31382;50.200;8.674;2023-03-20T05:28:39;100602.16;;;12.66;67.42
45323;BME280;31382;50.200;8.674;2023-03-20T05:33:40;100592.88;;;12.68;67.03
45323;BME280;31382;50.200;8.674;2023-03-20T05:38:41;100605.44;;;12.76;66.84
45323;BME280;31382;50.200;8.674;2023-03-20T05:43:43;100617.53;;;12.80;66.86
45323;BME280;31382;50.200;8.674;2023-03-20T05:48:44;100600.88;;;12.77;67.08
45323;BME280;31382;50.200;8.674;2023-03-20T05:53:46;100614.34;;;12.77;66.81
45323;BME280;31382;50.200;8.674;2023-03-20T05:58:47;100614.34;;;12.77;66.55
45323;BME280;31382;50.200;8.674;2023-03-20T06:03:49;100603.47;;;12.85;66.57
45323;BME280;31382;50.200;8.674;2023-03-20T06:08:51;100617.25;;;12.90;66.52
45323;BME280;31382;50.200;8.674;2023-03-20T06:13:52;100618.38;;;12.96;66.74
45323;BME280;31382;50.200;8.674;2023-03-20T06:18:55;100627.22;;;13.04;66.48
45323;BME280;31382;50.200;8.674;2023-03-20T06:23:57;100622.78;;;13.12;66.20
45323;BME280;31382;50.200;8.674;2023-03-20T06:29:00;100621.91;;;13.11;66.65
45323;BME280;31382;50.200;8.674;2023-03-20T06:34:01;100628.44;;;13.17;66.50
45323;BME280;31382;50.200;8.674;2023-03-20T06:39:03;100635.34;;;13.19;66.21
45323;BME280;31382;50.200;8.674;2023-03-20T06:44:05;100633.94;;;13.23;66.17
45323;BME280;31382;50.200;8.674;2023-03-20T06:49:06;100630.53;;;13.29;66.16
45323;BME280;31382;50.200;8.674;2023-03-20T06:54:08;100636.41;;;13.33;65.94
45323;BME280;31382;50.200;8.674;2023-03-20T06:59:09;100637.13;;;13.27;66.29
45323;BME280;31382;50.200;8.674;2023-03-20T07:04:11;100631.59;;;13.20;66.50
45323;BME280;31382;50.200;8.674;2023-03-20T07:09:12;100638.13;;;13.26;66.80
45323;BME280;31382;50.200;8.674;2023-03-20T07:14:14;100636.19;;;13.35;66.58
45323;BME280;31382;50.200;8.674;2023-03-20T07:19:16;100651.84;;;13.39;66.95
45323;BME280;31382;50.200;8.674;2023-03-20T07:24:17;100658.38;;;13.45;66.44
45323;BME280;31382;50.200;8.674;2023-03-20T07:29:19;100659.00;;;13.47;66.52
45323;BME280;31382;50.200;8.674;2023-03-20T07:34:21;100668.22;;;13.53;66.42
45323;BME280;31382;50.200;8.674;2023-03-20T07:39:23;100660.56;;;13.56;66.54
45323;BME280;31382;50.200;8.674;2023-03-20T07:44:24;100663.72;;;13.60;66.51
45323;BME280;31382;50.200;8.674;2023-03-20T07:49:25;100679.84;;;13.68;66.48
45323;BME280;31382;50.200;8.674;2023-03-20T07:54:27;100668.03;;;13.69;66.05
45323;BME280;31382;50.200;8.674;2023-03-20T07:59:28;100670.44;;;13.79;65.84
45323;BME280;31382;50.200;8.674;2023-03-20T08:04:30;100665.84;;;13.94;65.79
45323;BME280;31382;50.200;8.674;2023-03-20T08:09:31;100666.41;;;14.11;65.36
45323;BME280;31382;50.200;8.674;2023-03-20T08:14:33;100683.44;;;14.26;64.86
45323;BME280;31382;50.200;8.674;2023-03-20T08:19:34;100687.38;;;14.24;64.96
45323;BME280;31382;50.200;8.674;2023-03-20T08:24:36;100691.38;;;14.28;64.34
45323;BME280;31382;50.200;8.674;2023-03-20T08:29:38;100702.34;;;14.05;64.12
45323;BME280;31382;50.200;8.674;2023-03-20T08:34:39;100702.50;;;14.03;63.55
45323;BME280;31382;50.200;8.674;2023-03-20T08:39:40;100700.63;;;14.19;63.14
45323;BME280;31382;50.200;8.674;2023-03-20T08:44:42;100697.19;;;14.10;62.83
45323;BME280;31382;50.200;8.674;2023-03-20T08:49:43;100702.78;;;14.08;62.61
45323;BME280;31382;50.200;8.674;2023-03-20T08:54:45;100703.63;;;14.09;61.99
45323;BME280;31382;50.200;8.674;2023-03-20T08:59:46;100707.44;;;14.15;61.65
45323;BME280;31382;50.200;8.674;2023-03-20T09:04:47;100704.84;;;14.06;61.87
45323;BME280;31382;50.200;8.674;2023-03-20T09:09:49;100696.81;;;14.13;61.44
45323;BME280;31382;50.200;8.674;2023-03-20T09:14:50;100697.47;;;14.37;61.12
45323;BME280;31382;50.200;8.674;2023-03-20T09:19:52;100694.44;;;14.25;61.30
45323;BME280;31382;50.200;8.674;2023-03-20T09:24:53;100711.31;;;14.27;61.08
45323;BME280;31382;50.200;8.674;2023-03-20T09:29:55;100709.84;;;14.09;61.17
45323;BME280;31382;50.200;8.674;2023-03-20T09:34:56;100706.97;;;14.47;60.52
45323;BME280;31382;50.200;8.674;2023-03-20T09:39:57;100700.22;;;14.80;59.92
45323;BME280;31382;50.200;8.674;2023-03-20T09:45:10;100699.94;;;14.75;60.04
45323;BME280;31382;50.200;8.674;2023-03-20T09:50:25;100700.88;;;14.88;60.02
45323;BME280;31382;50.200;8.674;2023-03-20T09:55:36;100695.69;;;14.87;60.15
45323;BME280;31382;50.200;8.674;2023-03-20T10:00:42;100696.81;;;14.99;59.95
45323;BME280;31382;50.200;8.674;2023-03-20T10:05:57;100702.47;;;15.04;60.05
45323;BME280;31382;50.200;8.674;2023-03-20T10:16:40;100703.91;;;15.29;59.95
45323;BME280;31382;50.200;8.674;2023-03-20T10:21:47;100700.88;;;15.45;60.14
45323;BME280;31382;50.200;8.674;2023-03-20T10:26:51;100696.69;;;15.77;59.68
45323;BME280;31382;50.200;8.674;2023-03-20T10:42:34;100694.38;;;16.42;58.00
45323;BME280;31382;50.200;8.674;2023-03-20T10:47:42;100682.97;;;16.67;57.42
45323;BME280;31382;50.200;8.674;2023-03-20T10:52:47;100694.38;;;16.42;57.27
45323;BME280;31382;50.200;8.674;2023-03-20T10:57:52;100689.16;;;16.41;57.32
45323;BME280;31382;50.200;8.674;2023-03-20T11:02:55;100675.38;;;16.22;57.53
45323;BME280;31382;50.200;8.674;2023-03-20T11:13:22;100691.69;;;16.42;55.81
45323;BME280;31382;50.200;8.674;2023-03-20T11:18:25;100677.94;;;16.64;55.33
45323;BME280;31382;50.200;8.674;2023-03-20T11:23:28;100675.44;;;16.69;54.92
45323;BME280;31382;50.200;8.674;2023-03-20T11:28:40;100662.91;;;16.68;54.47
45323;BME280;31382;50.200;8.674;2023-03-20T11:33:44;100665.63;;;16.61;53.79
45323;BME280;31382;50.200;8.674;2023-03-20T11:38:47;100666.44;;;16.62;54.01
45323;BME280;31382;50.200;8.674;2023-03-20T11:43:50;100655.81;;;16.67;53.37
45323;BME280;31382;50.200;8.674;2023-03-20T11:49:06;100648.09;;;16.97;52.50
45323;BME280;31382;50.200;8.674;2023-03-20T11:54:19;100639.09;;;17.03;52.07
45323;BME280;31382;50.200;8.674;2023-03-20T12:04:54;100634.28;;;17.05;51.70
45323;BME280;31382;50.200;8.674;2023-03-20T12:21:53;100618.00;;;16.92;51.25
45323;BME280;31382;50.200;8.674;2023-03-20T12:27:27;100605.69;;;16.90;51.27
45323;BME280;31382;50.200;8.674;2023-03-20T12:33:03;100601.09;;;16.77;51.30
45323;BME280;31382;50.200;8.674;2023-03-20T12:43:29;100589.63;;;16.41;51.45
45323;BME280;31382;50.200;8.674;2023-03-20T12:48:54;100583.13;;;16.62;51.30
45323;BME280;31382;50.200;8.674;2023-03-20T12:54:02;100579.75;;;16.80;51.29
45323;BME280;31382;50.200;8.674;2023-03-20T12:59:31;100565.75;;;17.03;50.94
45323;BME280;31382;50.200;8.674;2023-03-20T13:04:57;100557.16;;;17.13;50.48
45323;BME280;31382;50.200;8.674;2023-03-20T13:20:55;100545.66;;;17.18;48.91
45323;BME280;31382;50.200;8.674;2023-03-20T13:44:30;100551.41;;;16.83;45.26
45323;BME280;31382;50.200;8.674;2023-03-20T13:50:22;100547.63;;;16.64;44.16
45323;BME280;31382;50.200;8.674;2023-03-20T14:09:40;100536.41;;;16.47;42.45
45323;BME280;31382;50.200;8.674;2023-03-20T14:22:22;100530.56;;;16.30;42.54
45323;BME280;31382;50.200;8.674;2023-03-20T15:07:43;100544.50;;;15.87;42.42
45323;BME280;31382;50.200;8.674;2023-03-20T15:14:00;100548.03;;;15.81;42.43
45323;BME280;31382;50.200;8.674;2023-03-20T15:19:21;100558.22;;;15.72;42.23
45323;BME280;31382;50.200;8.674;2023-03-20T15:24:29;100556.91;;;15.55;41.65
45323;BME280;31382;50.200;8.674;2023-03-20T15:29:46;100551.00;;;15.38;41.35
45323;BME280;31382;50.200;8.674;2023-03-20T15:35:51;100553.97;;;15.01;41.50
45323;BME280;31382;50.200;8.674;2023-03-20T15:41:31;100552.53;;;15.05;41.17
45323;BME280;31382;50.200;8.674;2023-03-20T15:46:35;100549.81;;;14.71;42.10
45323;BME280;31382;50.200;8.674;2023-03-20T15:51:36;100548.75;;;14.65;43.18
45323;BME280;31382;50.200;8.674;2023-03-20T15:56:38;100553.97;;;14.45;44.46
45323;BME280;31382;50.200;8.674;2023-03-20T16:01:45;100555.75;;;14.31;45.21
45323;BME280;31382;50.200;8.674;2023-03-20T16:06:51;100546.22;;;14.35;45.12
45323;BME280;31382;50.200;8.674;2023-03-20T16:11:58;100547.09;;;14.42;44.81
45323;BME280;31382;50.200;8.674;2023-03-20T16:17:02;100548.00;;;14.50;44.20
45323;BME280;31382;50.200;8.674;2023-03-20T16:22:16;100556.19;;;14.56;43.52
45323;BME280;31382;50.200;8.674;2023-03-20T16:27:23;100558.91;;;14.56;42.87
45323;BME280;31382;50.200;8.674;2023-03-20T16:32:38;100561.41;;;14.58;42.04
45323;BME280;31382;50.200;8.674;2023-03-20T16:37:50;100567.69;;;14.65;41.28
45323;BME280;31382;50.200;8.674;2023-03-20T16:42:53;100559.00;;;14.70;40.92
45323;BME280;31382;50.200;8.674;2023-03-20T16:48:20;100561.72;;;14.48;40.32
45323;BME280;31382;50.200;8.674;2023-03-20T16:53:27;100570.16;;;14.38;39.79
45323;BME280;31382;50.200;8.674;2023-03-20T16:58:30;100578.16;;;14.25;39.66
45323;BME280;31382;50.200;8.674;2023-03-20T17:03:49;100588.94;;;14.18;39.77
45323;BME280;31382;50.200;8.674;2023-03-20T17:08:59;100590.91;;;14.09;39.54
45323;BME280;31382;50.200;8.674;2023-03-20T17:14:01;100596.56;;;13.93;39.04
45323;BME280;31382;50.200;8.674;2023-03-20T17:19:16;100597.69;;;13.99;39.21
45323;BME280;31382;50.200;8.674;2023-03-20T17:24:18;100606.75;;;13.91;39.65
45323;BME280;31382;50.200;8.674;2023-03-20T17:29:19;100611.78;;;13.94;39.52
45323;BME280;31382;50.200;8.674;2023-03-20T17:34:21;100609.72;;;13.96;39.65
45323;BME280;31382;50.200;8.674;2023-03-20T17:39:22;100611.06;;;14.07;39.91
45323;BME280;31382;50.200;8.674;2023-03-20T17:44:25;100612.03;;;13.99;40.16
45323;BME280;31382;50.200;8.674;2023-03-20T17:49:26;100614.78;;;13.84;40.47
45323;BME280;31382;50.200;8.674;2023-03-20T17:54:28;100616.50;;;13.71;41.06
45323;BME280;31382;50.200;8.674;2023-03-20T17:59:30;100618.03;;;13.80;40.96
45323;BME280;31382;50.200;8.674;2023-03-20T18:04:31;100627.97;;;13.58;41.90
45323;BME280;31382;50.200;8.674;2023-03-20T18:09:34;100628.38;;;13.55;42.40
45323;BME280;31382;50.200;8.674;2023-03-20T18:14:36;100628.25;;;13.48;42.56
45323;BME280;31382;50.200;8.674;2023-03-20T18:19:37;100622.78;;;13.41;42.86
45323;BME280;31382;50.200;8.674;2023-03-20T18:24:39;100617.19;;;13.43;43.17
45323;BME280;31382;50.200;8.674;2023-03-20T18:29:44;100619.50;;;13.46;43.20
45323;BME280;31382;50.200;8.674;2023-03-20T18:34:45;100614.03;;;13.39;43.85
45323;BME280;31382;50.200;8.674;2023-03-20T18:39:47;100620.09;;;13.41;43.83
45323;BME280;31382;50.200;8.674;2023-03-20T18:44:48;100621.66;;;13.36;44.67
45323;BME280;31382;50.200;8.674;2023-03-20T18:49:49;100607.69;;;13.47;44.44
45323;BME280;31382;50.200;8.674;2023-03-20T18:54:51;100606.13;;;13.38;44.89
45323;BME280;31382;50.200;8.674;2023-03-20T18:59:52;100603.69;;;13.28;45.23
45323;BME280;31382;50.200;8.674;2023-03-20T19:04:53;100617.63;;;13.17;45.51
45323;BME280;31382;50.200;8.674;2023-03-20T19:09:55;100621.06;;;13.10;45.84
45323;BME280;31382;50.200;8.674;2023-03-20T19:14:56;100621.19;;;13.17;45.95
45323;BME280;31382;50.200;8.674;2023-03-20T19:19:58;100627.88;;;13.21;45.83
45323;BME280;31382;50.200;8.674;2023-03-20T19:24:59;100623.41;;;13.28;45.73
45323;BME280;31382;50.200;8.674;2023-03-20T19:30:00;100626.59;;;13.32;46.09
45323;BME280;31382;50.200;8.674;2023-03-20T19:35:02;100619.72;;;13.29;45.84
45323;BME280;31382;50.200;8.674;2023-03-20T19:40:32;100618.09;;;13.20;46.02
45323;BME280;31382;50.200;8.674;2023-03-20T19:45:36;100618.50;;;13.32;46.22
45323;BME280;31382;50.200;8.674;2023-03-20T19:50:38;100631.00;;;13.33;46.30
45323;BME280;31382;50.200;8.674;2023-03-20T19:55:44;100622.50;;;13.21;46.38
45323;BME280;31382;50.200;8.674;2023-03-20T20:00:47;100623.63;;;13.27;46.55
45323;BME280;31382;50.200;8.674;2023-03-20T20:06:10;100615.16;;;13.30;46.25
45323;BME280;31382;50.200;8.674;2023-03-20T20:11:12;100612.28;;;13.32;46.51
45323;BME280;31382;50.200;8.674;2023-03-20T20:16:15;100616.44;;;13.34;46.84
45323;BME280;31382;50.200;8.674;2023-03-20T20:21:16;100616.69;;;13.24;46.75
45323;BME280;31382;50.200;8.674;2023-03-20T20:26:38;100619.78;;;13.21;46.76
45323;BME280;31382;50.200;8.674;2023-03-20T20:31:53;100614.66;;;13.12;47.29
45323;BME280;31382;50.200;8.674;2023-03-20T20:36:54;100627.59;;;13.16;46.96
45323;BME280;31382;50.200;8.674;2023-03-20T20:42:16;100618.56;;;13.09;47.11
45323;BME280;31382;50.200;8.674;2023-03-20T20:47:17;100622.41;;;13.00;47.80
45323;BME280;31382;50.200;8.674;2023-03-20T20:52:19;100612.72;;;13.05;47.80
45323;BME280;31382;50.200;8.674;2023-03-20T20:57:20;100626.59;;;13.17;47.63
45323;BME280;31382;50.200;8.674;2023-03-20T21:02:22;100620.63;;;13.22;48.22
45323;BME280;31382;50.200;8.674;2023-03-20T21:07:24;100621.75;;;13.27;47.83
45323;BME280;31382;50.200;8.674;2023-03-20T21:12:25;100624.94;;;13.31;48.27
45323;BME280;31382;50.200;8.674;2023-03-20T21:17:38;100626.09;;;13.28;48.47
45323;BME280;31382;50.200;8.674;2023-03-20T21:22:59;100629.47;;;13.31;48.11
45323;BME280;31382;50.200;8.674;2023-03-20T21:28:01;100616.06;;;13.22;48.80
45323;BME280;31382;50.200;8.674;2023-03-20T21:33:02;100618.28;;;13.19;48.61
45323;BME280;31382;50.200;8.674;2023-03-20T21:38:04;100615.03;;;13.08;48.88
45323;BME280;31382;50.200;8.674;2023-03-20T21:43:25;100620.81;;;13.05;49.09
45323;BME280;31382;50.200;8.674;2023-03-20T21:48:27;100619.69;;;13.00;49.35
45323;BME280;31382;50.200;8.674;2023-03-20T21:53:48;100619.41;;;12.95;49.96
45323;BME280;31382;50.200;8.674;2023-03-20T21:59:10;100618.09;;;12.90;50.25
45323;BME280;31382;50.200;8.674;2023-03-20T22:04:31;100614.44;;;12.83;50.48
45323;BME280;31382;50.200;8.674;2023-03-20T22:09:53;100607.56;;;12.81;50.45
45323;BME280;31382;50.200;8.674;2023-03-20T22:15:14;100604.31;;;12.85;50.81
45323;BME280;31382;50.200;8.674;2023-03-20T22:20:35;100608.47;;;12.73;51.01
45323;BME280;31382;50.200;8.674;2023-03-20T22:25:59;100605.31;;;12.69;51.02
45323;BME280;31382;50.200;8.674;2023-03-20T22:31:21;100607.84;;;12.71;51.21
45323;BME280;31382;50.200;8.674;2023-03-20T22:36:45;100603.75;;;12.75;51.46
45323;BME280;31382;50.200;8.674;2023-03-20T22:42:07;100600.41;;;12.73;51.77
45323;BME280;31382;50.200;8.674;2023-03-20T22:47:29;100596.00;;;12.57;52.10
45323;BME280;31382;50.200;8.674;2023-03-20T22:52:30;100594.34;;;12.56;52.47
45323;BME280;31382;50.200;8.674;2023-03-20T22:57:48;100595.06;;;12.50;52.15
45323;BME280;31382;50.200;8.674;2023-03-20T23:03:06;100589.69;;;12.50;52.50
45323;BME280;31382;50.200;8.674;2023-03-20T23:08:28;100590.78;;;12.56;52.30
45323;BME280;31382;50.200;8.674;2023-03-20T23:13:31;100593.13;;;12.59;52.77
45323;BME280;31382;50.200;8.674;2023-03-20T23:18:32;100580.84;;;12.56;52.90
45323;BME280;31382;50.200;8.674;2023-03-20T23:23:34;100587.25;;;12.55;53.11
45323;BME280;31382;50.200;8.674;2023-03-20T23:28:37;100580.19;;;12.54;53.26
45323;BME280;31382;50.200;8.674;2023-03-20T23:33:38;100580.56;;;12.51;53.48
45323;BME280;31382;50.200;8.674;2023-03-20T23:38:40;100578.69;;;12.52;53.48
45323;BME280;31382;50.200;8.674;2023-03-20T23:43:41;100581.28;;;12.45;53.56
45323;BME280;31382;50.200;8.674;2023-03-20T23:48:43;100576.06;;;12.43;54.00
45323;BME280;31382;50.200;8.674;2023-03-20T23:53:44;100567.34;;;12.41;54.00
45323;BME280;31382;50.200;8.674;2023-03-20T23:58:46;100567.97;;;12.43;54.07
